KASJ

Tri-County Airport

Ahoskie, North Carolina, USA
METAR KASJ 232320Z AUTO 00000KT 10SM CLR 15/02 A2976 RMK AO2 T01520019
Observed Flight Rules
Jan-23 @ 23:20 UTC (26 minutes ago) Visual Flight Rules
Wind Visibility Clouds
Calm 10 miles
  • Clear skies
Temperatures Readings
Current 15°C / 59°F
Dewpoint 2°C / 36°F
Humidity 42%
Altimeter 29.76" Hg
Pressure 1008 hPa
Elevation 21
METAR KASJ 232320Z AUTO 00000KT 10SM CLR 15/02 A2976 RMK AO2 T01520019
Observed Flight Rules
Jan-23 @ 23:20 UTC
(26 minutes ago)
VFR
Wind Visibility
Calm 10 miles
Clouds
  • Clear skies
Temperature Dewpoint
15°C / 59°F 2°C / 36°F
Humidity Altimeter Pressure
42% 29.76" Hg 1008 hPa